Time;durP1;ratioP1;P1;durP2;ratioP2;P2;SDS_P1;SDS_P2;PMS_P1;PMS_P2;Temp;Humidity;BMP_temperature;BMP_pressure;BME280_temperature;BME280_humidity;BME280_pressure;Samples;Min_cycle;Max_cycle;Signal;HPM_P1;HPM_P2
2023/10/14 00:01:31;;;;;;;11.35;1.60;;;13.30;99.90;;;;;;4993869;28;178290;-71
2023/10/14 00:03:57;;;;;;;13.07;1.75;;;13.30;99.90;;;;;;5033790;28;20065;-71
2023/10/14 00:06:25;;;;;;;10.20;1.20;;;13.20;99.90;;;;;;5024842;28;206786;-71
2023/10/14 00:11:33;;;;;;;11.18;1.40;;;13.00;99.90;;;;;;4981142;28;205650;-71
2023/10/14 00:14:00;;;;;;;10.93;1.52;;;13.10;99.90;;;;;;5030654;28;20048;-71
2023/10/14 00:19:01;;;;;;;13.95;1.75;;;13.00;99.90;;;;;;5048088;28;20044;-71
2023/10/14 00:21:27;;;;;;;8.93;1.75;;;12.90;99.90;;;;;;5041763;28;20059;-72
2023/10/14 00:23:57;;;;;;;10.30;1.70;;;12.80;99.90;;;;;;5042632;28;20651;-72
2023/10/14 00:26:27;;;;;;;13.90;1.40;;;12.70;99.90;;;;;;5009415;28;171298;-71
2023/10/14 00:28:54;;;;;;;12.37;1.70;;;12.60;99.90;;;;;;5040491;28;20048;-71
2023/10/14 00:31:24;;;;;;;9.07;1.55;;;12.70;99.90;;;;;;5019895;28;177230;-71
2023/10/14 00:33:54;;;;;;;11.82;1.58;;;12.70;99.90;;;;;;5030924;28;20051;-71
2023/10/14 00:36:30;;;;;;;14.30;1.92;;;12.70;99.90;;;;;;4981965;28;179929;-71
2023/10/14 00:38:57;;;;;;;13.43;1.92;;;12.70;99.90;;;;;;5028447;28;20071;-71
2023/10/14 00:41:28;;;;;;;13.93;1.48;;;12.70;99.90;;;;;;5035383;28;187509;-71
2023/10/14 00:43:54;;;;;;;10.20;1.60;;;12.60;99.90;;;;;;5036811;28;20056;-71
2023/10/14 00:46:23;;;;;;;16.00;1.95;;;12.60;99.90;;;;;;5023860;28;242509;-72
2023/10/14 00:48:58;;;;;;;14.15;2.05;;;12.60;99.90;;;;;;5044825;28;20068;-72
2023/10/14 00:51:29;;;;;;;14.00;1.90;;;12.60;99.90;;;;;;4991586;28;154296;-71
2023/10/14 00:54:01;;;;;;;15.35;1.70;;;12.60;99.90;;;;;;5033919;28;20060;-71
2023/10/14 00:56:27;;;;;;;15.57;1.75;;;12.60;99.90;;;;;;5010198;28;143204;-71
2023/10/14 00:58:58;;;;;;;15.60;1.90;;;12.50;99.90;;;;;;5044245;28;20080;-71
2023/10/14 01:01:50;;;;;;;16.20;2.08;;;12.40;99.90;;;;;;4980432;28;230516;-73
2023/10/14 01:04:21;;;;;;;14.23;1.77;;;12.30;99.90;;;;;;5015084;28;20055;-72
2023/10/14 01:12:17;;;;;;;12.77;2.10;;;12.20;99.90;;;;;;5070564;28;21422;-71
2023/10/14 01:14:47;;;;;;;13.18;2.22;;;12.10;99.90;;;;;;5009345;28;20053;-73
2023/10/14 01:17:29;;;;;;;15.40;2.15;;;12.10;99.90;;;;;;5042337;28;20825;-72
2023/10/14 01:20:10;;;;;;;19.20;2.38;;;12.00;99.90;;;;;;5000245;28;37777;-72
2023/10/14 01:22:38;;;;;;;17.10;2.45;;;11.90;99.90;;;;;;5046090;28;20053;-72
2023/10/14 01:25:12;;;;;;;19.58;2.70;;;11.80;99.90;;;;;;5008289;28;179188;-72
2023/10/14 01:27:42;;;;;;;20.27;2.47;;;11.80;99.90;;;;;;5043761;28;20060;-73
2023/10/14 01:30:18;;;;;;;16.77;2.50;;;11.70;99.90;;;;;;5001218;28;242425;-73
2023/10/14 01:35:31;;;;;;;20.20;2.53;;;11.60;99.90;;;;;;5007112;28;189640;-72
2023/10/14 01:37:59;;;;;;;21.17;2.78;;;11.60;99.90;;;;;;5062689;28;20056;-73
2023/10/14 01:43:04;;;;;;;21.85;2.78;;;11.50;99.90;;;;;;5057953;28;20045;-72
2023/10/14 01:45:31;;;;;;;18.17;2.30;;;11.40;99.90;;;;;;5015458;28;66874;-72
2023/10/14 01:50:47;;;;;;;20.50;2.40;;;11.40;99.90;;;;;;4989134;28;140797;-72
2023/10/14 01:53:31;;;;;;;20.90;2.40;;;11.40;99.90;;;;;;5049763;28;20048;-72
2023/10/14 01:56:00;;;;;;;18.63;2.45;;;11.40;99.90;;;;;;5005314;28;78425;-72
2023/10/14 01:58:30;;;;;;;20.00;2.28;;;11.40;99.90;;;;;;5057302;28;20053;-72
2023/10/14 02:03:47;;;;;;;17.92;2.40;;;11.40;99.90;;;;;;5054206;28;20052;-73
2023/10/14 02:06:17;;;;;;;22.65;2.63;;;11.40;99.90;;;;;;4993896;28;72050;-73
2023/10/14 02:08:51;;;;;;;18.90;2.42;;;11.30;99.90;;;;;;5059028;28;20041;-72
2023/10/14 02:11:20;;;;;;;18.52;2.38;;;11.20;99.90;;;;;;5015373;28;45849;-73
2023/10/14 02:13:50;;;;;;;15.45;2.40;;;11.10;99.90;;;;;;5054816;28;20045;-72
2023/10/14 02:16:29;;;;;;;14.98;2.40;;;11.10;99.90;;;;;;5001018;28;91239;-73
2023/10/14 02:19:17;;;;;;;13.75;2.05;;;11.00;99.90;;;;;;5043830;28;20051;-71
2023/10/14 02:21:44;;;;;;;21.83;2.33;;;11.00;99.90;;;;;;5020502;28;20044;-73
2023/10/14 02:24:10;;;;;;;16.55;2.28;;;10.80;99.90;;;;;;5027317;28;21461;-73
2023/10/14 02:26:38;;;;;;;16.85;2.45;;;10.80;99.90;;;;;;5019869;28;234923;-72
2023/10/14 02:29:10;;;;;;;16.40;2.42;;;10.80;99.90;;;;;;5026688;28;20055;-72
2023/10/14 02:31:36;;;;;;;20.40;2.50;;;10.80;99.90;;;;;;5008851;28;205120;-72
2023/10/14 02:34:07;;;;;;;14.60;2.40;;;10.70;99.90;;;;;;5022993;28;20063;-72
2023/10/14 02:36:49;;;;;;;17.73;2.58;;;10.70;99.90;;;;;;5041743;28;40176;-72
2023/10/14 02:39:26;;;;;;;19.30;2.30;;;10.60;99.90;;;;;;5028440;28;20530;-73
2023/10/14 02:41:59;;;;;;;18.60;2.63;;;10.60;99.90;;;;;;5039969;28;20049;-75
2023/10/14 02:44:33;;;;;;;17.58;2.78;;;10.50;99.90;;;;;;5009167;28;204642;-72
2023/10/14 02:47:08;;;;;;;19.85;2.20;;;10.50;99.90;;;;;;5035905;28;20052;-73
2023/10/14 02:49:37;;;;;;;19.27;2.30;;;10.50;99.90;;;;;;4995689;28;182010;-73
2023/10/14 02:52:18;;;;;;;17.77;2.70;;;10.40;99.90;;;;;;5027463;28;20503;-72
2023/10/14 02:54:45;;;;;;;;;;;10.40;99.90;;;;;;5008767;28;27973;-73
2023/10/14 02:57:27;;;;;;;17.40;2.17;;;10.40;99.90;;;;;;5050558;28;20394;-72
2023/10/14 02:59:58;;;;;;;15.27;2.58;;;10.40;99.90;;;;;;5015115;28;20103;-73
2023/10/14 03:02:26;;;;;;;18.13;2.20;;;10.30;99.90;;;;;;5052105;28;20091;-72
2023/10/14 03:07:27;;;;;;;16.58;2.25;;;10.30;99.90;;;;;;5055005;28;20040;-72
2023/10/14 03:09:58;;;;;;;16.40;2.67;;;10.20;99.90;;;;;;5011676;28;158777;-72
2023/10/14 03:12:27;;;;;;;25.98;3.67;;;10.10;99.90;;;;;;5045829;28;20064;-72
2023/10/14 03:14:54;;;;;;;21.85;2.28;;;10.10;99.90;;;;;;5008047;28;196243;-72
2023/10/14 03:17:25;;;;;;;27.33;2.80;;;10.00;99.90;;;;;;5052740;28;20602;-72
2023/10/14 03:19:55;;;;;;;14.23;2.30;;;10.00;99.90;;;;;;5017178;28;20539;-72
2023/10/14 03:22:22;;;;;;;21.30;3.00;;;10.00;99.90;;;;;;5055317;28;20406;-73
2023/10/14 03:24:52;;;;;;;19.30;2.85;;;9.90;99.90;;;;;;5007407;28;256780;-73
2023/10/14 03:27:19;;;;;;;18.63;2.20;;;9.90;99.90;;;;;;5057943;28;20056;-73
2023/10/14 03:29:54;;;;;;;20.95;2.70;;;9.80;99.90;;;;;;5022399;27;38803;-73
2023/10/14 03:32:32;;;;;;;18.35;2.60;;;9.80;99.90;;;;;;5061439;28;20071;-73
2023/10/14 03:35:10;;;;;;;17.77;2.38;;;9.80;99.90;;;;;;5013198;28;104670;-72
2023/10/14 03:37:40;;;;;;;16.88;2.20;;;9.80;99.90;;;;;;5051036;28;20055;-72
2023/10/14 03:42:54;;;;;;;16.55;2.55;;;9.80;99.90;;;;;;5041064;28;20052;-72
2023/10/14 03:45:22;;;;;;;22.42;2.45;;;9.80;99.90;;;;;;5009325;28;43503;-72
2023/10/14 03:47:52;;;;;;;20.17;2.33;;;9.80;99.90;;;;;;5046772;28;20049;-72
2023/10/14 03:50:25;;;;;;;18.17;2.33;;;9.80;99.90;;;;;;4993678;28;152882;-72
2023/10/14 03:52:53;;;;;;;17.02;2.33;;;9.80;99.90;;;;;;5057872;28;20064;-72
2023/10/14 03:55:26;;;;;;;15.43;2.40;;;9.80;99.90;;;;;;5004910;28;185312;-72
2023/10/14 03:58:02;;;;;;;20.75;2.67;;;9.80;99.90;;;;;;5052463;28;20068;-73
2023/10/14 04:00:36;;;;;;;21.63;2.55;;;9.70;99.90;;;;;;5008477;28;141874;-72
2023/10/14 04:03:11;;;;;;;17.58;2.05;;;9.70;99.90;;;;;;5035243;28;20060;-73
2023/10/14 04:05:43;;;;;;;18.95;2.70;;;9.70;99.90;;;;;;5015220;28;197647;-73
2023/10/14 04:08:10;;;;;;;18.05;2.65;;;9.70;99.90;;;;;;5055788;28;20057;-73
2023/10/14 04:10:43;;;;;;;21.73;2.25;;;9.70;99.90;;;;;;5006656;28;46411;-73
2023/10/14 04:13:13;;;;;;;18.15;2.40;;;9.70;99.90;;;;;;5050162;28;20057;-73
2023/10/14 04:15:49;;;;;;;20.20;2.80;;;9.60;99.90;;;;;;5020051;28;20056;-72
2023/10/14 04:18:23;;;;;;;17.58;2.15;;;9.60;99.90;;;;;;5058474;28;20060;-73
2023/10/14 04:21:13;;;;;;;17.42;2.08;;;9.50;99.90;;;;;;5008277;28;234012;-72
2023/10/14 04:26:24;;;;;;;17.13;2.35;;;9.50;99.90;;;;;;4996195;28;104583;-72
2023/10/14 04:28:53;;;;;;;19.90;2.50;;;9.40;99.90;;;;;;5055839;28;20064;-71
2023/10/14 04:31:27;;;;;;;16.55;1.92;;;9.50;99.90;;;;;;5009605;28;124207;-72
2023/10/14 04:33:54;;;;;;;21.17;2.20;;;9.40;99.90;;;;;;5057168;28;20060;-71
2023/10/14 04:39:15;;;;;;;16.80;2.40;;;9.50;99.90;;;;;;5025240;28;20044;-73
2023/10/14 04:44:37;;;;;;;18.17;2.75;;;9.40;99.90;;;;;;5014467;28;115091;-72
2023/10/14 04:47:08;;;;;;;20.15;2.28;;;9.40;99.90;;;;;;5042942;28;20069;-73
2023/10/14 04:49:37;;;;;;;21.55;2.13;;;9.40;99.90;;;;;;4991975;28;209061;-73
2023/10/14 04:52:05;;;;;;;24.17;2.40;;;9.30;99.90;;;;;;5039579;28;20399;-72
2023/10/14 04:54:44;;;;;;;21.92;2.53;;;9.30;99.90;;;;;;5006468;28;163347;-71
2023/10/14 04:57:22;;;;;;;20.27;2.47;;;9.30;99.90;;;;;;5044593;28;20056;-72
2023/10/14 04:59:53;;;;;;;21.02;2.47;;;9.30;99.90;;;;;;5017125;28;36293;-72
2023/10/14 05:02:24;;;;;;;16.75;2.20;;;9.20;99.90;;;;;;5042508;28;20434;-72
2023/10/14 05:04:51;;;;;;;17.02;2.38;;;9.20;99.90;;;;;;5011905;28;20049;-73
2023/10/14 05:07:19;;;;;;;16.27;2.40;;;9.20;99.90;;;;;;5050338;28;20052;-73
2023/10/14 05:09:56;;;;;;;20.05;2.60;;;9.20;99.90;;;;;;5015375;28;43086;-72
2023/10/14 05:12:26;;;;;;;17.77;2.45;;;9.20;99.90;;;;;;5063011;28;20051;-72
2023/10/14 05:14:55;;;;;;;19.27;2.23;;;9.20;99.90;;;;;;5007840;28;189632;-72
2023/10/14 05:17:25;;;;;;;18.83;2.50;;;9.20;99.90;;;;;;5026771;28;20049;-73
2023/10/14 05:19:57;;;;;;;12.77;1.73;;;9.20;99.90;;;;;;5007702;28;237843;-72
2023/10/14 05:22:24;;;;;;;16.38;2.15;;;9.20;99.90;;;;;;5047590;28;20063;-72
2023/10/14 05:25:02;;;;;;;20.15;2.47;;;9.20;99.90;;;;;;5003488;28;133176;-71
2023/10/14 05:27:45;;;;;;;23.33;2.95;;;9.20;99.90;;;;;;5041114;28;20044;-72
2023/10/14 05:30:21;;;;;;;21.13;2.88;;;9.20;99.90;;;;;;5001468;28;128334;-73
2023/10/14 05:32:51;;;;;;;24.58;2.63;;;9.20;99.90;;;;;;5045228;28;20063;-72
2023/10/14 05:35:17;;;;;;;21.70;2.80;;;9.20;99.90;;;;;;5016720;27;218382;-72
2023/10/14 05:37:45;;;;;;;22.83;2.67;;;9.30;99.90;;;;;;5052227;28;20068;-72
2023/10/14 05:40:15;;;;;;;25.42;3.05;;;9.20;99.90;;;;;;5014454;28;244809;-71
2023/10/14 05:42:45;;;;;;;20.05;2.47;;;9.20;99.90;;;;;;5048452;28;20052;-72
2023/10/14 05:45:12;;;;;;;15.73;2.13;;;9.20;99.90;;;;;;5007942;28;164052;-71
2023/10/14 05:47:42;;;;;;;24.40;2.97;;;9.20;99.90;;;;;;5053148;28;20063;-72
2023/10/14 05:50:14;;;;;;;24.77;2.67;;;9.30;99.90;;;;;;4991430;28;214225;-71
2023/10/14 05:52:43;;;;;;;22.48;2.63;;;9.20;99.90;;;;;;5061165;28;20076;-72
2023/10/14 05:55:09;;;;;;;21.08;2.97;;;9.20;99.90;;;;;;5002623;28;251146;-73
2023/10/14 05:57:39;;;;;;;21.52;2.60;;;9.20;99.90;;;;;;5047681;28;20064;-72
2023/10/14 06:00:20;;;;;;;24.95;2.92;;;9.20;99.90;;;;;;5005778;28;49564;-73
2023/10/14 06:02:54;;;;;;;19.85;2.80;;;9.20;99.90;;;;;;5051692;28;20392;-72
2023/10/14 06:05:22;;;;;;;28.10;3.88;;;9.20;99.90;;;;;;5001709;28;131690;-73
2023/10/14 06:07:48;;;;;;;21.85;3.22;;;9.20;99.90;;;;;;5042716;28;20048;-72
2023/10/14 06:10:22;;;;;;;21.23;2.78;;;9.20;99.90;;;;;;5006061;28;172243;-73
2023/10/14 06:12:52;;;;;;;21.63;2.40;;;9.20;99.90;;;;;;5054002;28;20061;-72
2023/10/14 06:15:19;;;;;;;18.77;2.75;;;9.10;99.90;;;;;;5008568;28;219986;-71
2023/10/14 06:17:47;;;;;;;19.48;2.58;;;9.20;99.90;;;;;;5060535;28;20083;-71
2023/10/14 06:20:14;;;;;;;26.13;2.55;;;9.20;99.90;;;;;;5007104;28;20104;-72
2023/10/14 06:22:44;;;;;;;19.63;2.85;;;9.20;99.90;;;;;;5051020;28;20063;-72
2023/10/14 06:25:15;;;;;;;16.80;2.33;;;9.30;99.90;;;;;;4998687;28;247113;-72
2023/10/14 06:27:45;;;;;;;22.70;2.70;;;9.30;99.90;;;;;;5047029;28;20052;-71
2023/10/14 06:30:19;;;;;;;18.48;2.33;;;9.40;99.90;;;;;;5008074;28;184992;-70
2023/10/14 06:32:52;;;;;;;24.75;2.60;;;9.40;99.90;;;;;;5059437;28;20057;-71
2023/10/14 06:35:20;;;;;;;17.90;2.53;;;9.50;99.90;;;;;;4996686;28;171037;-71
2023/10/14 06:37:47;;;;;;;24.38;2.80;;;9.60;99.90;;;;;;5040685;28;20049;-72
2023/10/14 06:40:14;;;;;;;22.48;2.50;;;9.70;99.90;;;;;;5014626;28;177506;-72
2023/10/14 06:42:43;;;;;;;22.05;3.03;;;9.80;99.90;;;;;;5057504;28;20060;-71
2023/10/14 06:45:17;;;;;;;20.77;2.50;;;9.80;99.90;;;;;;5003912;28;240518;-72
2023/10/14 06:47:51;;;;;;;22.17;2.63;;;9.90;99.90;;;;;;5032244;28;20056;-70
2023/10/14 06:50:23;;;;;;;22.08;2.90;;;10.00;99.90;;;;;;5002817;28;147476;-71
2023/10/14 06:52:57;;;;;;;21.55;3.03;;;10.00;99.90;;;;;;5049676;28;20052;-71
2023/10/14 06:55:27;;;;;;;23.70;3.00;;;10.00;99.90;;;;;;5003487;28;188619;-71
2023/10/14 06:57:55;;;;;;;19.33;2.40;;;10.00;99.90;;;;;;5059196;28;20051;-72
2023/10/14 07:00:26;;;;;;;19.92;2.33;;;10.00;99.90;;;;;;5009614;28;68589;-71
2023/10/14 07:02:57;;;;;;;20.10;2.97;;;10.00;99.90;;;;;;5051136;28;20057;-70
2023/10/14 07:05:29;;;;;;;22.33;2.90;;;10.10;99.90;;;;;;5009247;28;150366;-70
2023/10/14 07:07:58;;;;;;;20.10;2.67;;;10.10;99.90;;;;;;5057871;28;20049;-71
2023/10/14 07:10:28;;;;;;;17.52;3.17;;;10.10;99.90;;;;;;5008908;28;20787;-72
2023/10/14 07:12:57;;;;;;;18.38;2.90;;;10.10;99.90;;;;;;5041631;28;20048;-71
2023/10/14 07:15:25;;;;;;;13.73;2.30;;;10.10;99.90;;;;;;4997194;28;251581;-71
2023/10/14 07:17:54;;;;;;;20.15;3.63;;;10.20;99.90;;;;;;5051555;28;20047;-72
2023/10/14 07:20:22;;;;;;;20.73;2.90;;;10.20;99.90;;;;;;5009044;28;57771;-72
2023/10/14 07:22:49;;;;;;;21.77;2.50;;;10.30;99.90;;;;;;5050659;28;20067;-71
2023/10/14 07:25:18;;;;;;;19.85;2.50;;;10.40;99.90;;;;;;5009643;28;119013;-71
2023/10/14 07:27:44;;;;;;;20.35;2.72;;;10.40;99.90;;;;;;5050196;28;20045;-72
2023/10/14 07:30:13;;;;;;;24.13;3.17;;;10.50;99.90;;;;;;5008080;28;108703;-71
2023/10/14 07:32:47;;;;;;;20.17;2.80;;;10.50;99.90;;;;;;5061810;28;20053;-73
2023/10/14 07:35:15;;;;;;;22.40;2.85;;;10.60;99.90;;;;;;4972659;28;127978;-72
2023/10/14 07:37:45;;;;;;;18.42;2.25;;;10.60;99.90;;;;;;5035268;28;20060;-71
2023/10/14 07:40:22;;;;;;;19.02;2.70;;;10.70;99.90;;;;;;5014337;28;121678;-72
2023/10/14 07:42:53;;;;;;;20.10;2.70;;;10.70;99.90;;;;;;5057791;28;20754;-71
2023/10/14 07:45:33;;;;;;;20.05;2.35;;;10.80;99.90;;;;;;5005164;28;191354;-71
2023/10/14 07:48:10;;;;;;;15.10;2.42;;;10.80;99.90;;;;;;5050052;28;21528;-71
2023/10/14 07:50:42;;;;;;;18.65;2.45;;;10.90;99.90;;;;;;4989135;28;178972;-71
2023/10/14 07:53:17;;;;;;;15.80;2.40;;;11.00;99.90;;;;;;5037234;28;20549;-72
2023/10/14 07:55:47;;;;;;;19.10;3.20;;;11.10;99.90;;;;;;5003398;28;134096;-72
2023/10/14 07:58:14;;;;;;;18.23;2.57;;;11.10;99.90;;;;;;5056361;28;20053;-72
2023/10/14 08:00:48;;;;;;;18.80;2.15;;;11.10;99.90;;;;;;5011498;28;83543;-72
2023/10/14 08:03:20;;;;;;;18.02;2.30;;;11.20;99.90;;;;;;5066238;28;20060;-72
2023/10/14 08:05:49;;;;;;;19.00;3.05;;;11.30;99.90;;;;;;4988749;28;277901;-72
2023/10/14 08:08:16;;;;;;;22.35;2.90;;;11.30;99.90;;;;;;5056345;28;20053;-72
2023/10/14 08:10:45;;;;;;;18.17;2.58;;;11.40;99.90;;;;;;5022071;28;214154;-72
2023/10/14 08:13:12;;;;;;;17.02;2.38;;;11.40;99.90;;;;;;5054534;28;20067;-71
2023/10/14 08:15:40;;;;;;;16.02;2.15;;;11.60;99.90;;;;;;5004378;28;129473;-72
2023/10/14 08:18:06;;;;;;;23.70;2.65;;;11.60;99.90;;;;;;5063176;28;20426;-71
2023/10/14 08:20:34;;;;;;;15.70;2.60;;;11.70;99.90;;;;;;5020293;28;44629;-71
2023/10/14 08:23:01;;;;;;;16.88;2.78;;;11.80;99.90;;;;;;5052079;28;20048;-72
2023/10/14 08:25:28;;;;;;;19.30;2.47;;;11.80;99.90;;;;;;5013942;28;72886;-71
2023/10/14 08:27:57;;;;;;;20.48;3.42;;;11.90;99.90;;;;;;5058374;28;20059;-72
2023/10/14 08:30:32;;;;;;;15.35;2.20;;;11.90;99.90;;;;;;5012310;28;20539;-73
2023/10/14 08:32:59;;;;;;;19.80;2.42;;;12.00;99.90;;;;;;5054998;28;20067;-73
2023/10/14 08:35:27;;;;;;;19.27;2.60;;;12.10;99.90;;;;;;4992881;28;84570;-73
2023/10/14 08:37:57;;;;;;;21.08;2.65;;;12.20;99.90;;;;;;5051682;28;20053;-73
2023/10/14 08:40:26;;;;;;;17.23;2.38;;;12.20;99.90;;;;;;5007942;28;162971;-74
2023/10/14 08:43:05;;;;;;;18.20;2.42;;;12.20;99.90;;;;;;5054022;28;20056;-72
2023/10/14 08:45:36;;;;;;;16.30;2.17;;;12.30;99.90;;;;;;4989819;28;141411;-74
2023/10/14 08:48:03;;;;;;;17.67;2.55;;;12.40;99.90;;;;;;5056308;28;20055;-73
2023/10/14 08:50:31;;;;;;;15.32;2.58;;;12.50;99.90;;;;;;4996385;28;212487;-73
2023/10/14 08:53:00;;;;;;;16.58;2.10;;;12.70;99.90;;;;;;5054878;28;20060;-73
2023/10/14 08:55:28;;;;;;;18.13;2.35;;;12.80;99.90;;;;;;5009088;28;226167;-73
2023/10/14 08:58:02;;;;;;;14.10;2.30;;;12.90;99.90;;;;;;5052998;28;20063;-74
2023/10/14 09:00:29;;;;;;;19.20;2.28;;;12.90;99.90;;;;;;4983865;28;126365;-73
2023/10/14 09:02:57;;;;;;;17.75;2.40;;;12.80;99.90;;;;;;5059730;28;20067;-73
2023/10/14 09:05:26;;;;;;;17.45;2.15;;;12.80;99.90;;;;;;5003932;28;283168;-74
2023/10/14 09:07:55;;;;;;;17.27;2.30;;;12.80;99.90;;;;;;5052645;28;20048;-74
2023/10/14 09:10:24;;;;;;;15.43;2.28;;;12.70;99.90;;;;;;4987581;28;232799;-73
2023/10/14 09:13:04;;;;;;;11.70;1.75;;;12.60;99.90;;;;;;5042105;28;20056;-74
2023/10/14 09:15:33;;;;;;;13.23;1.63;;;12.60;99.90;;;;;;5000013;28;99557;-72
2023/10/14 09:18:00;;;;;;;15.25;1.80;;;12.60;99.90;;;;;;5060578;28;20734;-71
2023/10/14 09:20:38;;;;;;;12.07;2.20;;;12.60;99.90;;;;;;5003485;28;92486;-73
2023/10/14 09:23:30;;;;;;;14.52;2.28;;;12.60;99.90;;;;;;5046573;28;20057;-72
2023/10/14 09:25:58;;;;;;;14.27;2.00;;;12.60;99.90;;;;;;4990132;28;215790;-74
2023/10/14 09:28:26;;;;;;;13.35;1.75;;;12.60;99.90;;;;;;5057277;28;20880;-72
2023/10/14 09:30:54;;;;;;;10.88;1.58;;;12.70;99.90;;;;;;5008423;28;33618;-72
2023/10/14 09:33:29;;;;;;;15.48;1.85;;;12.70;99.90;;;;;;5059066;28;20063;-73
2023/10/14 09:35:59;;;;;;;13.52;1.75;;;12.80;99.90;;;;;;5015884;28;228278;-71
2023/10/14 09:38:27;;;;;;;13.70;1.93;;;12.80;99.90;;;;;;5054899;28;20059;-73
2023/10/14 09:40:57;;;;;;;13.45;1.85;;;12.90;99.90;;;;;;4989035;28;132399;-73
2023/10/14 09:43:25;;;;;;;10.02;1.50;;;13.10;99.90;;;;;;5055614;28;20056;-73
2023/10/14 09:45:55;;;;;;;12.48;1.58;;;13.40;99.90;;;;;;4998573;28;203298;-74
2023/10/14 09:48:29;;;;;;;12.50;1.40;;;13.50;99.90;;;;;;5056663;28;20049;-74
2023/10/14 09:50:56;;;;;;;13.23;1.95;;;13.20;99.90;;;;;;4990918;28;240075;-74
2023/10/14 09:53:34;;;;;;;13.77;1.95;;;13.10;99.90;;;;;;5059183;28;20060;-73
2023/10/14 09:56:04;;;;;;;13.77;1.90;;;12.70;99.90;;;;;;4983757;28;225500;-74
2023/10/14 09:58:34;;;;;;;11.02;1.77;;;12.50;99.90;;;;;;5052471;28;20052;-73
2023/10/14 10:01:03;;;;;;;15.50;2.03;;;12.20;99.90;;;;;;5007453;28;237252;-73
2023/10/14 10:03:35;;;;;;;17.80;1.90;;;12.00;99.90;;;;;;5063406;28;20064;-75
2023/10/14 10:06:35;;;;;;;14.60;1.92;;;11.90;99.90;;;;;;5014303;28;233756;-74
2023/10/14 10:09:19;;;;;;;18.13;2.45;;;11.70;99.90;;;;;;5025604;28;20056;-74
2023/10/14 10:11:50;;;;;;;18.70;2.50;;;11.70;99.90;;;;;;5042942;28;20040;-73
2023/10/14 10:14:26;;;;;;;15.20;2.28;;;11.80;99.90;;;;;;5019692;28;50328;-72
2023/10/14 10:16:53;;;;;;;15.15;2.15;;;11.80;99.90;;;;;;5051510;28;20044;-75
2023/10/14 10:19:23;;;;;;;16.80;2.15;;;11.80;99.90;;;;;;5012436;28;129808;-74
2023/10/14 10:22:12;;;;;;;18.95;2.08;;;11.90;99.90;;;;;;5035994;28;20530;-73
2023/10/14 10:24:41;;;;;;;10.00;1.80;;;11.90;99.90;;;;;;5003923;28;20068;-73
2023/10/14 10:27:10;;;;;;;12.07;1.60;;;11.90;99.90;;;;;;5038291;28;20594;-74
2023/10/14 10:29:50;;;;;;;12.00;1.70;;;12.00;99.90;;;;;;5009220;28;230141;-73
2023/10/14 10:32:29;;;;;;;7.93;1.17;;;12.10;99.90;;;;;;5043415;28;20736;-73
2023/10/14 10:35:07;;;;;;;9.70;1.30;;;12.30;99.90;;;;;;4987433;28;123326;-73
2023/10/14 10:37:39;;;;;;;13.98;1.23;;;12.60;99.90;;;;;;5039367;28;20059;-74
2023/10/14 10:40:11;;;;;;;12.07;1.88;;;12.50;99.90;;;;;;5011590;28;20051;-74
2023/10/14 10:42:41;;;;;;;10.82;1.30;;;12.50;99.90;;;;;;5047478;28;20063;-73
2023/10/14 10:45:09;;;;;;;9.47;1.53;;;12.30;99.90;;;;;;5004361;28;20602;-73
2023/10/14 10:47:56;;;;;;;11.75;1.60;;;12.20;99.90;;;;;;5045914;28;20308;-73
2023/10/14 10:50:26;;;;;;;12.20;1.42;;;12.30;99.90;;;;;;4994216;28;153005;-73
2023/10/14 10:53:13;;;;;;;10.00;1.77;;;12.30;99.90;;;;;;5054113;28;20059;-73
2023/10/14 10:55:46;;;;;;;16.08;1.98;;;12.40;99.90;;;;;;5005424;28;20051;-73
2023/10/14 10:58:14;;;;;;;15.35;1.88;;;12.60;99.90;;;;;;5041857;28;20056;-73
2023/10/14 11:00:42;;;;;;;16.23;1.95;;;12.60;99.90;;;;;;5003884;28;20083;-74
2023/10/14 11:03:13;;;;;;;12.25;1.55;;;12.80;99.90;;;;;;5054607;28;20537;-71
2023/10/14 11:05:41;;;;;;;12.15;1.65;;;12.80;99.90;;;;;;5017602;28;145921;-73
2023/10/14 11:08:08;;;;;;;11.70;1.80;;;13.00;99.90;;;;;;5060568;28;20053;-75
2023/10/14 11:10:42;;;;;;;15.98;1.88;;;13.10;99.90;;;;;;5005742;28;168042;-73
2023/10/14 11:13:13;;;;;;;13.65;1.90;;;13.20;99.90;;;;;;5055450;28;20040;-74
2023/10/14 11:15:43;;;;;;;17.52;1.90;;;13.50;99.90;;;;;;4986110;28;20697;-74
2023/10/14 11:18:13;;;;;;;19.25;2.88;;;13.60;99.90;;;;;;5057728;28;20050;-73
2023/10/14 11:20:45;;;;;;;13.90;2.05;;;13.50;99.90;;;;;;5004252;28;181432;-74
2023/10/14 11:23:12;;;;;;;14.23;2.00;;;13.20;99.90;;;;;;5053724;28;20770;-72
2023/10/14 11:25:42;;;;;;;10.88;1.77;;;12.70;99.90;;;;;;5006611;28;20059;-73
2023/10/14 11:28:14;;;;;;;10.27;1.30;;;12.30;99.90;;;;;;5060048;28;20058;-74
2023/10/14 11:30:42;;;;;;;10.90;1.67;;;12.40;99.90;;;;;;5004144;28;77187;-72
2023/10/14 11:33:13;;;;;;;16.25;1.80;;;12.90;99.90;;;;;;5057184;28;20052;-71
2023/10/14 11:35:39;;;;;;;;;;;13.70;99.90;;;;;;4983302;28;184488;-73
2023/10/14 11:38:07;;;;;;;13.45;1.65;;;13.60;99.90;;;;;;5050409;28;19920;-72
2023/10/14 11:40:36;;;;;;;20.52;1.98;;;14.40;99.90;;;;;;5003632;28;186616;-72
2023/10/14 11:43:03;;;;;;;11.18;1.60;;;15.20;99.90;;;;;;5052988;28;20057;-72
2023/10/14 11:45:31;;;;;;;10.93;1.73;;;14.70;99.90;;;;;;5004574;28;24503;-71
2023/10/14 11:48:00;;;;;;;12.20;1.92;;;13.90;99.90;;;;;;5045832;28;20068;-72
2023/10/14 11:50:26;;;;;;;11.00;1.70;;;13.10;99.90;;;;;;4989825;28;120462;-72
2023/10/14 11:52:57;;;;;;;12.98;1.70;;;12.70;99.90;;;;;;5061919;28;20055;-73
2023/10/14 11:55:27;;;;;;;11.13;1.52;;;12.60;99.90;;;;;;5021918;28;20065;-71
2023/10/14 11:57:54;;;;;;;12.88;1.90;;;12.40;99.90;;;;;;5051185;28;20790;-72
2023/10/14 12:00:21;;;;;;;10.35;1.60;;;12.20;99.90;;;;;;5011944;28;128004;-72
2023/10/14 12:02:50;;;;;;;10.70;1.88;;;12.00;99.90;;;;;;5049019;28;20056;-72
2023/10/14 12:05:17;;;;;;;12.25;1.77;;;11.90;99.90;;;;;;5010770;28;239861;-71
2023/10/14 12:07:52;;;;;;;11.07;1.40;;;11.80;99.90;;;;;;5044602;28;20052;-72
2023/10/14 12:10:22;;;;;;;12.63;1.80;;;11.80;99.90;;;;;;5001695;28;65229;-72
2023/10/14 12:12:54;;;;;;;13.00;1.80;;;11.70;99.90;;;;;;5051760;28;20586;-72
2023/10/14 12:15:21;;;;;;;15.20;2.35;;;11.70;99.90;;;;;;5011606;28;141387;-71
2023/10/14 12:17:47;;;;;;;16.05;2.30;;;11.70;99.90;;;;;;5042790;28;20056;-71
2023/10/14 12:20:13;;;;;;;12.77;1.73;;;11.60;99.90;;;;;;5010300;28;150997;-72
2023/10/14 12:22:40;;;;;;;15.02;2.35;;;11.40;99.90;;;;;;5047799;28;20060;-71
2023/10/14 12:25:07;;;;;;;14.93;2.22;;;11.60;99.90;;;;;;4996192;28;262717;-72
2023/10/14 12:27:36;;;;;;;15.68;2.38;;;12.10;99.90;;;;;;5050343;28;20438;-73
2023/10/14 12:30:02;;;;;;;15.48;2.13;;;12.80;99.90;;;;;;5012373;28;176690;-72
2023/10/14 12:32:32;;;;;;;14.82;2.50;;;14.00;99.90;;;;;;5046386;28;20446;-72
2023/10/14 12:34:59;;;;;;;17.10;2.50;;;15.00;99.90;;;;;;4999334;28;240592;-72
2023/10/14 12:37:28;;;;;;;18.60;2.50;;;15.90;99.90;;;;;;5045493;28;20053;-72
2023/10/14 12:40:11;;;;;;;16.23;2.10;;;16.40;99.90;;;;;;5009605;28;121847;-72
2023/10/14 12:42:47;;;;;;;14.82;2.20;;;16.60;99.90;;;;;;5028798;28;20600;-72
2023/10/14 12:45:15;;;;;;;16.77;2.85;;;17.00;99.90;;;;;;5020171;28;162762;-73
2023/10/14 12:47:46;;;;;;;14.55;2.22;;;15.90;99.90;;;;;;5046242;28;20065;-72
2023/10/14 12:50:13;;;;;;;;;;;15.00;99.90;;;;;;4991091;28;125270;-72
2023/10/14 12:52:45;;;;;;;17.52;2.65;;;15.20;99.90;;;;;;5049587;28;20523;-71
2023/10/14 12:55:17;;;;;;;14.50;2.45;;;15.40;99.90;;;;;;5007333;28;54382;-72
2023/10/14 12:57:46;;;;;;;16.27;2.60;;;16.10;99.90;;;;;;5057083;28;20048;-72
2023/10/14 13:00:19;;;;;;;15.40;2.53;;;16.90;99.90;;;;;;5007117;28;212468;-72
2023/10/14 13:02:48;;;;;;;14.88;2.35;;;17.20;99.40;;;;;;5048507;28;20063;-72
2023/10/14 13:05:18;;;;;;;16.90;2.72;;;15.90;98.40;;;;;;5006931;28;23749;-71
2023/10/14 13:07:52;;;;;;;12.27;2.47;;;15.20;99.90;;;;;;5045605;28;20056;-70
2023/10/14 13:10:22;;;;;;;15.20;2.50;;;14.70;98.90;;;;;;5001778;28;105087;-71
2023/10/14 13:12:53;;;;;;;13.55;2.08;;;14.40;98.60;;;;;;5054538;28;20056;-72
2023/10/14 13:15:30;;;;;;;15.63;2.55;;;14.30;98.70;;;;;;5000364;28;124711;-72
2023/10/14 13:17:57;;;;;;;14.10;2.42;;;14.30;98.70;;;;;;5056096;28;20052;-73
2023/10/14 13:20:31;;;;;;;16.33;2.45;;;13.90;98.90;;;;;;4994708;28;219505;-71
2023/10/14 13:23:05;;;;;;;15.48;2.38;;;13.90;99.90;;;;;;5055879;28;20494;-73
2023/10/14 13:25:36;;;;;;;9.98;1.90;;;13.60;98.30;;;;;;4991031;28;240678;-71
2023/10/14 13:28:08;;;;;;;13.40;2.00;;;13.40;97.70;;;;;;5054526;28;20063;-71
2023/10/14 13:30:47;;;;;;;16.50;2.15;;;13.30;98.10;;;;;;5005273;28;34136;-70
2023/10/14 13:33:16;;;;;;;12.25;2.10;;;14.70;97.90;;;;;;5053850;28;20061;-72